createdAt,value
2017-06-23T10:22:47.746Z,360
2017-06-23T10:23:58.759Z,430
2017-06-23T10:25:10.339Z,595
2017-06-23T10:26:22.022Z,780
2017-06-23T10:27:33.023Z,810
2017-06-23T10:28:44.220Z,875
2017-06-23T10:29:55.630Z,835
2017-06-23T10:31:07.108Z,870
2017-06-23T10:32:18.164Z,935
2017-06-23T10:33:29.171Z,870
2017-06-23T10:34:41.350Z,715
2017-06-23T10:35:52.368Z,815
2017-06-23T10:37:03.431Z,740
2017-06-23T10:38:14.437Z,710
2017-06-23T10:39:25.484Z,590
2017-06-23T10:40:36.701Z,430
2017-06-23T10:41:47.731Z,375
2017-06-23T10:42:58.783Z,455
2017-06-23T10:44:09.792Z,365
2017-06-23T10:45:20.999Z,345
2017-06-23T10:46:32.206Z,460
2017-06-23T10:47:43.205Z,450
2017-06-23T10:48:54.286Z,580
2017-06-23T10:50:05.295Z,590
2017-06-23T10:51:16.502Z,545
2017-06-23T10:52:29.223Z,505
2017-06-23T10:53:43.094Z,575
2017-06-23T10:54:55.585Z,560
2017-06-23T10:56:08.525Z,605
2017-06-23T10:57:19.859Z,475
2017-06-23T10:58:30.868Z,645
2017-06-23T10:59:43.581Z,530
2017-06-23T11:00:54.910Z,610
2017-06-23T11:02:05.938Z,615
2017-06-23T11:03:17.157Z,560
2017-06-23T11:04:28.547Z,530
2017-06-23T11:05:39.601Z,515
2017-06-23T11:06:50.607Z,640
2017-06-23T11:08:01.607Z,730
2017-06-23T11:09:12.618Z,590
2017-06-23T11:10:24.504Z,625
2017-06-23T11:11:36.128Z,820
2017-06-23T11:12:47.783Z,580
2017-06-23T11:13:59.162Z,650
2017-06-23T11:15:10.671Z,435
2017-06-23T11:16:21.684Z,350
2017-06-23T11:17:32.955Z,305
2017-06-23T11:18:44.876Z,305
2017-06-23T11:19:56.249Z,300
2017-06-23T11:21:08.060Z,305
2017-06-23T11:22:23.037Z,340
2017-06-23T11:23:35.255Z,400
2017-06-23T11:24:46.521Z,370
2017-06-23T11:25:57.728Z,345
2017-06-23T11:27:08.744Z,300
2017-06-23T11:28:19.795Z,255
2017-06-23T11:29:31.001Z,225
2017-06-23T11:30:42.193Z,210
2017-06-23T11:31:53.394Z,205
2017-06-23T11:33:04.608Z,215
2017-06-23T11:34:15.751Z,245
2017-06-23T11:35:26.755Z,365
2017-06-23T11:36:37.756Z,390
2017-06-23T11:37:48.754Z,460
2017-06-23T11:38:59.759Z,430
2017-06-23T11:40:10.807Z,420
2017-06-23T11:41:24.399Z,390
2017-06-23T11:42:36.313Z,360
2017-06-23T11:43:47.519Z,340
2017-06-23T11:44:58.524Z,315
2017-06-23T11:46:09.804Z,300
2017-06-23T11:47:21.405Z,325
2017-06-23T11:48:32.930Z,360
2017-06-23T11:49:43.926Z,415
2017-06-23T11:50:54.923Z,510
2017-06-23T11:52:08.029Z,565
2017-06-23T11:53:20.361Z,670
2017-06-23T11:54:31.423Z,720
2017-06-23T11:55:42.421Z,705
2017-06-23T11:56:54.357Z,630
2017-06-23T11:58:05.833Z,595
2017-06-23T11:59:16.913Z,635
2017-06-23T12:00:27.909Z,655
2017-06-23T12:01:38.917Z,535
2017-06-23T12:02:50.119Z,530
2017-06-23T12:04:01.268Z,530
2017-06-23T12:05:12.263Z,580
2017-06-23T12:06:24.854Z,600
2017-06-23T12:07:35.856Z,585
2017-06-23T12:08:46.906Z,625
2017-06-23T12:09:58.297Z,630
2017-06-23T12:11:11.382Z,565
2017-06-23T12:12:23.666Z,465
2017-06-23T12:13:35.117Z,375
2017-06-23T12:14:46.182Z,390
2017-06-23T12:15:57.490Z,425
2017-06-23T12:17:08.509Z,395
2017-06-23T12:18:19.534Z,430
2017-06-23T12:19:30.688Z,445
2017-06-23T12:20:45.690Z,385
2017-06-23T12:22:00.806Z,525
2017-06-23T12:23:12.647Z,590
2017-06-23T12:24:23.827Z,580
2017-06-23T12:25:38.937Z,605
2017-06-23T12:26:50.884Z,590
2017-06-23T12:28:02.112Z,560
2017-06-23T12:29:13.109Z,565
2017-06-23T12:30:24.109Z,515
2017-06-23T12:31:35.202Z,470
2017-06-23T12:32:46.640Z,405
2017-06-23T12:33:57.896Z,370
2017-06-23T12:35:08.949Z,345
2017-06-23T12:36:19.977Z,360
2017-06-23T12:37:31.287Z,350
2017-06-23T12:38:42.337Z,320
2017-06-23T12:39:53.334Z,310
2017-06-23T12:41:04.433Z,305
2017-06-23T12:42:15.780Z,290
2017-06-23T12:43:26.777Z,315
2017-06-23T12:44:37.838Z,325
2017-06-23T12:45:48.832Z,370
2017-06-23T12:46:59.831Z,335
2017-06-23T12:48:13.074Z,345
2017-06-23T12:49:24.628Z,345
2017-06-23T12:50:35.631Z,360
2017-06-23T12:51:46.637Z,340
2017-06-23T12:52:57.672Z,370
2017-06-23T12:54:08.674Z,355
2017-06-23T12:55:19.718Z,320
2017-06-23T12:56:30.730Z,340
2017-06-23T12:57:41.939Z,375
2017-06-23T12:58:54.210Z,395
2017-06-23T13:00:08.675Z,360
2017-06-23T13:01:20.110Z,390
2017-06-23T13:02:31.175Z,385
2017-06-23T13:03:42.489Z,395
2017-06-23T13:04:54.409Z,435
2017-06-23T13:06:05.506Z,455
2017-06-23T13:07:19.801Z,440
2017-06-23T13:08:33.728Z,440
2017-06-23T13:09:45.617Z,460
2017-06-23T13:10:56.617Z,475
2017-06-23T13:12:11.019Z,460
2017-06-23T13:13:23.409Z,475
2017-06-23T13:14:38.914Z,460
2017-06-23T13:15:50.002Z,415
2017-06-23T13:17:02.937Z,405
2017-06-23T13:18:13.990Z,430
2017-06-23T13:19:25.194Z,415
2017-06-23T13:20:36.195Z,405
2017-06-23T13:21:47.229Z,405
2017-06-23T13:22:58.455Z,395
2017-06-23T13:24:09.709Z,395
2017-06-23T13:25:20.902Z,385
2017-06-23T13:26:31.914Z,370
2017-06-23T13:27:42.914Z,385
2017-06-23T13:28:53.928Z,410
2017-06-23T13:30:04.979Z,410
2017-06-23T13:31:18.213Z,400
2017-06-23T13:32:29.689Z,450
2017-06-23T13:33:40.712Z,480
2017-06-23T13:34:56.784Z,395
2017-06-23T13:36:08.453Z,515
2017-06-23T13:37:19.456Z,515
2017-06-23T13:38:30.509Z,490
2017-06-23T13:39:41.517Z,415
2017-06-23T13:40:55.280Z,355
2017-06-23T13:42:09.892Z,345
2017-06-23T13:43:24.395Z,355
2017-06-23T13:44:37.900Z,395
2017-06-23T13:45:49.888Z,375
2017-06-23T13:47:03.060Z,335
2017-06-23T13:48:15.165Z,335
2017-06-23T13:49:26.397Z,380
2017-06-23T13:50:37.402Z,360
2017-06-23T13:51:48.464Z,295
2017-06-23T13:52:59.474Z,325
2017-06-23T13:54:10.484Z,310
2017-06-23T13:55:21.512Z,330
2017-06-23T13:56:32.526Z,320
2017-06-23T13:57:46.616Z,315
2017-06-23T13:58:57.884Z,320
2017-06-23T14:00:08.885Z,350
2017-06-23T14:01:19.876Z,345
2017-06-23T14:02:30.929Z,390
2017-06-23T14:03:42.740Z,340
2017-06-23T14:04:54.269Z,290
2017-06-23T14:06:05.609Z,275
2017-06-23T14:07:16.784Z,280
2017-06-23T14:08:27.986Z,255
2017-06-23T14:09:39.287Z,250
2017-06-23T14:10:50.516Z,250
2017-06-23T14:12:01.516Z,260
2017-06-23T14:13:14.262Z,275
2017-06-23T14:14:26.711Z,290
2017-06-23T14:15:38.041Z,320
2017-06-23T14:16:49.038Z,330
2017-06-23T14:18:00.201Z,320
2017-06-23T14:19:11.316Z,315
2017-06-23T14:20:22.392Z,315
2017-06-23T14:21:34.415Z,310
2017-06-23T14:22:46.128Z,305
2017-06-23T14:23:57.607Z,295
2017-06-23T14:25:08.620Z,285
2017-06-23T14:26:19.629Z,285
2017-06-23T14:27:30.684Z,290
2017-06-23T14:28:41.898Z,290
2017-06-23T14:29:52.901Z,305
2017-06-23T14:31:03.896Z,310
2017-06-23T14:32:18.457Z,320
2017-06-23T14:33:30.312Z,330
2017-06-23T14:34:41.319Z,335
2017-06-23T14:35:52.314Z,345
2017-06-23T14:37:03.322Z,360
2017-06-23T14:38:14.473Z,355
2017-06-23T14:39:25.526Z,350
2017-06-23T14:40:36.731Z,355
2017-06-23T14:41:47.932Z,330
2017-06-23T14:42:58.925Z,365
2017-06-23T14:44:10.125Z,380
2017-06-23T14:45:25.488Z,395
2017-06-23T14:46:36.500Z,405
2017-06-23T14:47:47.705Z,400
2017-06-23T14:48:58.698Z,385
2017-06-23T14:50:09.701Z,380
2017-06-23T14:51:20.748Z,380
2017-06-23T14:52:31.748Z,330
2017-06-23T14:53:42.743Z,295
2017-06-23T14:54:53.941Z,285
2017-06-23T14:56:04.996Z,275
2017-06-23T14:57:16.800Z,255
2017-06-23T14:58:27.797Z,250
2017-06-23T14:59:38.785Z,245
2017-06-23T15:00:50.533Z,260
2017-06-23T15:02:02.093Z,300
2017-06-23T15:03:13.654Z,300
2017-06-23T15:04:27.340Z,310
2017-06-23T15:05:38.351Z,335
2017-06-23T15:06:49.346Z,355
2017-06-23T15:08:00.343Z,345
2017-06-23T15:09:11.395Z,360
2017-06-23T15:10:22.391Z,310
2017-06-23T15:11:33.385Z,280
2017-06-23T15:12:44.390Z,265
2017-06-23T15:13:55.401Z,250
2017-06-23T15:15:06.451Z,240
2017-06-23T15:16:17.619Z,235
2017-06-23T15:17:28.616Z,240
2017-06-23T15:18:39.692Z,235
2017-06-23T15:19:50.697Z,265
2017-06-23T15:21:01.776Z,310
2017-06-23T15:22:12.771Z,335
2017-06-23T15:23:23.769Z,290
2017-06-23T15:24:34.767Z,275
2017-06-23T15:25:46.043Z,260
2017-06-23T15:26:57.039Z,250
2017-06-23T15:28:08.030Z,260
2017-06-23T15:29:19.031Z,240
2017-06-23T15:30:30.033Z,300
2017-06-23T15:31:41.430Z,295
2017-06-23T15:32:53.309Z,255
2017-06-23T15:34:04.315Z,275
2017-06-23T15:35:15.305Z,280
2017-06-23T15:36:26.308Z,215
2017-06-23T15:37:37.358Z,200
2017-06-23T15:38:48.382Z,225
2017-06-23T15:39:59.395Z,230
2017-06-23T15:41:10.408Z,215
2017-06-23T15:42:21.417Z,205
2017-06-23T15:43:32.462Z,195
2017-06-23T15:44:43.456Z,175
2017-06-23T15:45:54.452Z,190
2017-06-23T15:47:05.444Z,205
2017-06-23T15:48:16.648Z,265
2017-06-23T15:49:27.693Z,255
2017-06-23T15:50:38.692Z,260
2017-06-23T15:51:49.695Z,265
2017-06-23T15:53:02.029Z,205
2017-06-23T15:54:13.730Z,195
2017-06-23T15:55:24.799Z,190
2017-06-23T15:56:38.749Z,185
2017-06-23T15:57:49.746Z,190
2017-06-23T15:59:00.744Z,220
2017-06-23T16:00:12.404Z,240
2017-06-23T16:01:23.443Z,235
2017-06-23T16:02:34.639Z,250
2017-06-23T16:03:48.085Z,240
2017-06-23T16:04:59.508Z,180
2017-06-23T16:06:10.505Z,230
2017-06-23T16:07:21.539Z,225
2017-06-23T16:08:32.537Z,195
2017-06-23T16:09:43.531Z,205
2017-06-23T16:10:54.519Z,210
2017-06-23T16:12:05.517Z,180
2017-06-23T16:13:16.787Z,215
2017-06-23T16:14:27.784Z,210
2017-06-23T16:15:38.815Z,180
2017-06-23T16:16:50.036Z,195
2017-06-23T16:18:01.231Z,170
2017-06-23T16:19:12.475Z,185
2017-06-23T16:20:23.706Z,145
2017-06-23T16:21:36.941Z,140
2017-06-23T16:22:47.945Z,175
2017-06-23T16:23:58.942Z,145
2017-06-23T16:25:09.992Z,135
2017-06-23T16:26:20.987Z,130
2017-06-23T16:27:31.991Z,125
2017-06-23T16:28:42.991Z,125
2017-06-23T16:29:54.017Z,130
2017-06-23T16:31:05.010Z,135
2017-06-23T16:32:16.730Z,135
2017-06-23T16:33:27.885Z,135
2017-06-23T16:34:38.885Z,140
2017-06-23T16:35:49.937Z,140
2017-06-23T16:37:00.942Z,135
2017-06-23T16:38:11.932Z,135
2017-06-23T16:39:23.129Z,135
2017-06-23T16:40:34.117Z,140
2017-06-23T16:41:45.180Z,140
2017-06-23T16:42:56.384Z,145
2017-06-23T16:44:09.201Z,140
2017-06-23T16:45:20.207Z,155
2017-06-23T16:46:31.398Z,145
2017-06-23T16:47:42.645Z,180
2017-06-23T16:48:53.640Z,170
2017-06-23T16:50:05.037Z,135
2017-06-23T16:51:16.166Z,130
2017-06-23T16:52:27.296Z,125
2017-06-23T16:53:38.548Z,120
2017-06-23T16:54:49.554Z,130
2017-06-23T16:56:03.531Z,135
2017-06-23T16:57:14.655Z,145
2017-06-23T16:58:25.848Z,130
2017-06-23T16:59:38.464Z,130
2017-06-23T17:00:49.462Z,160
2017-06-23T17:02:03.763Z,165
2017-06-23T17:03:17.861Z,150
2017-06-23T17:04:29.218Z,150
2017-06-23T17:05:41.097Z,140
2017-06-23T17:06:52.753Z,135
2017-06-23T17:08:03.750Z,130
2017-06-23T17:09:14.748Z,145
2017-06-23T17:10:26.356Z,150
2017-06-23T17:11:37.640Z,145
2017-06-23T17:12:49.043Z,135
2017-06-23T17:14:00.657Z,115
2017-06-23T17:15:11.819Z,110
2017-06-23T17:16:23.348Z,105
2017-06-23T17:17:34.801Z,100
2017-06-23T17:18:46.256Z,100
2017-06-23T17:19:57.830Z,105
2017-06-23T17:21:09.380Z,105
2017-06-23T17:22:20.910Z,105
2017-06-23T17:23:32.473Z,100
2017-06-23T17:24:44.259Z,100
2017-06-23T17:25:55.647Z,100
2017-06-23T17:27:07.374Z,105
2017-06-23T17:28:18.701Z,95
2017-06-23T17:29:30.303Z,95
2017-06-23T17:30:41.732Z,90
2017-06-23T17:31:53.365Z,85
2017-06-23T17:33:04.421Z,80
2017-06-23T17:34:15.467Z,85
2017-06-23T17:35:26.458Z,85
2017-06-23T17:36:37.464Z,95
2017-06-23T17:37:48.479Z,95
2017-06-23T17:38:59.555Z,100
2017-06-23T17:40:10.573Z,100
2017-06-23T17:41:21.604Z,95
2017-06-23T17:42:33.845Z,95
2017-06-23T17:43:44.882Z,100
2017-06-23T17:44:55.998Z,110
2017-06-23T17:46:07.211Z,120
2017-06-23T17:47:18.218Z,120
2017-06-23T17:48:29.279Z,115
2017-06-23T17:49:40.294Z,105
2017-06-23T17:50:51.571Z,100
2017-06-23T17:52:02.771Z,95
2017-06-23T17:53:13.797Z,95
2017-06-23T17:54:24.810Z,95
2017-06-23T17:55:35.892Z,100
2017-06-23T17:56:48.648Z,95
2017-06-23T17:57:59.655Z,90
2017-06-23T17:59:10.658Z,85
2017-06-23T18:00:23.954Z,80
2017-06-23T18:01:35.314Z,80
2017-06-23T18:02:46.323Z,80
2017-06-23T18:03:57.328Z,85
2017-06-23T18:05:08.337Z,100
2017-06-23T18:06:19.363Z,100
2017-06-23T18:07:30.418Z,90
2017-06-23T18:08:41.444Z,80
2017-06-23T18:09:52.457Z,75
2017-06-23T18:11:03.485Z,70
2017-06-23T18:12:14.753Z,65
2017-06-23T18:13:25.797Z,65
2017-06-23T18:14:36.803Z,65
2017-06-23T18:15:48.019Z,70
2017-06-23T18:16:59.037Z,75
2017-06-23T18:18:10.043Z,75
2017-06-23T18:19:21.099Z,75
2017-06-23T18:20:32.145Z,80
2017-06-23T18:21:43.379Z,75
2017-06-23T18:22:54.382Z,75
2017-06-23T18:24:05.600Z,70
2017-06-23T18:25:16.669Z,70
2017-06-23T18:26:28.028Z,70
2017-06-23T18:27:39.039Z,65
2017-06-23T18:28:50.045Z,65
2017-06-23T18:30:01.046Z,65
2017-06-23T18:31:12.102Z,65
2017-06-23T18:32:23.109Z,65
2017-06-23T18:33:34.109Z,60
2017-06-23T18:34:45.122Z,55
2017-06-23T18:35:56.133Z,55
2017-06-23T18:37:07.260Z,55
2017-06-23T18:38:18.265Z,55
2017-06-23T18:39:29.271Z,50
2017-06-23T18:40:40.292Z,50
2017-06-23T18:41:51.302Z,50
2017-06-23T18:43:02.365Z,45
2017-06-23T18:44:13.566Z,45
2017-06-23T18:45:24.775Z,45
2017-06-23T18:46:35.773Z,45
2017-06-23T18:47:47.183Z,45
2017-06-23T18:48:58.264Z,45
2017-06-23T18:50:09.271Z,45
2017-06-23T18:51:20.301Z,40
2017-06-23T18:52:31.350Z,35
2017-06-23T18:53:42.416Z,35
2017-06-23T18:54:53.473Z,35
2017-06-23T18:56:05.941Z,30
2017-06-23T18:57:16.940Z,30
2017-06-23T18:58:28.007Z,30
2017-06-23T18:59:39.011Z,25
2017-06-23T19:00:50.069Z,30
2017-06-23T19:02:01.068Z,25
2017-06-23T19:03:13.240Z,25
2017-06-23T19:04:24.238Z,25
2017-06-23T19:05:35.312Z,25
2017-06-23T19:06:46.536Z,25
2017-06-23T19:07:57.833Z,25
2017-06-23T19:09:09.504Z,25
2017-06-23T19:10:20.519Z,25
2017-06-23T19:11:33.604Z,25
2017-06-23T19:12:44.616Z,25
2017-06-23T19:13:55.665Z,25
2017-06-23T19:15:11.277Z,25
2017-06-23T19:16:22.802Z,25
2017-06-23T19:17:33.802Z,25
2017-06-23T19:18:48.547Z,20
2017-06-23T19:19:59.959Z,20
2017-06-23T19:21:10.984Z,20
2017-06-23T19:22:51.228Z,20
2017-06-23T19:24:09.154Z,15
2017-06-23T19:25:46.201Z,15
2017-06-23T19:27:27.958Z,15
2017-06-23T19:29:06.472Z,15
2017-06-23T19:30:20.842Z,10
2017-06-23T19:31:31.991Z,10
2017-06-23T19:32:43.558Z,10
2017-06-23T19:33:55.628Z,10
2017-06-23T19:35:06.826Z,10
2017-06-23T19:36:17.816Z,10
2017-06-23T19:37:28.808Z,5
2017-06-23T19:38:39.852Z,5
2017-06-23T19:39:50.837Z,5
2017-06-23T19:41:01.834Z,5
2017-06-23T19:42:13.879Z,5
2017-06-23T19:43:26.102Z,5
2017-06-23T19:44:37.310Z,5
2017-06-23T19:45:50.326Z,5
2017-06-23T19:47:02.612Z,5
2017-06-23T19:48:13.614Z,5
2017-06-23T19:49:24.812Z,5
2017-06-23T19:50:35.798Z,0
2017-06-23T19:52:19.498Z,0
2017-06-23T19:53:32.396Z,0
2017-06-23T19:55:12.284Z,0
2017-06-23T19:56:54.297Z,0
2017-06-23T19:58:09.263Z,0
2017-06-23T19:59:20.282Z,0
2017-06-23T20:00:31.546Z,0
2017-06-23T20:01:46.820Z,0
2017-06-23T20:03:09.236Z,0
2017-06-23T20:04:50.360Z,0
2017-06-23T20:06:09.973Z,0
2017-06-23T20:07:45.443Z,0
2017-06-23T20:09:05.603Z,0
2017-06-23T20:10:45.510Z,0
2017-06-23T20:12:16.533Z,0
2017-06-23T20:13:51.159Z,0
2017-06-23T20:15:02.650Z,0
2017-06-23T20:16:13.845Z,0
2017-06-23T20:17:24.885Z,0
2017-06-23T20:18:36.083Z,0
2017-06-23T20:19:47.095Z,0
2017-06-23T20:20:58.094Z,0
2017-06-23T20:22:09.110Z,0
2017-06-23T20:23:20.345Z,0
2017-06-23T20:24:31.542Z,0
2017-06-23T20:25:42.734Z,0
2017-06-23T20:26:53.718Z,0
2017-06-23T20:28:05.117Z,0
2017-06-23T20:29:16.168Z,0
2017-06-23T20:30:27.159Z,0
2017-06-23T20:31:38.151Z,0
2017-06-23T20:32:53.587Z,0
2017-06-23T20:34:04.599Z,0
2017-06-23T20:35:15.890Z,0
2017-06-23T20:36:28.075Z,0
2017-06-23T20:37:39.096Z,0
2017-06-23T20:38:50.088Z,0
2017-06-23T20:40:01.277Z,0
2017-06-23T20:41:12.316Z,0
2017-06-23T20:42:23.304Z,0
2017-06-23T20:43:34.543Z,0
2017-06-23T20:44:45.530Z,0
2017-06-23T20:45:56.534Z,0
2017-06-23T20:47:07.774Z,0
2017-06-23T20:48:18.759Z,0
2017-06-23T20:49:29.757Z,0
2017-06-23T20:50:40.768Z,0
2017-06-23T20:51:53.431Z,0
2017-06-23T20:53:07.491Z,0
2017-06-23T20:54:18.494Z,0
2017-06-23T20:55:29.480Z,0
2017-06-23T20:56:40.466Z,0
2017-06-23T20:57:51.459Z,0
2017-06-23T20:59:02.512Z,0
2017-06-23T21:00:13.511Z,0
2017-06-23T21:01:24.497Z,0
2017-06-23T21:02:35.484Z,0
2017-06-23T21:03:46.679Z,0
2017-06-23T21:04:57.717Z,0
2017-06-23T21:06:08.716Z,0
2017-06-23T21:07:19.904Z,0
2017-06-23T21:08:30.893Z,0
2017-06-23T21:09:41.916Z,0
2017-06-23T21:10:52.908Z,0
2017-06-23T21:12:04.098Z,0
2017-06-23T21:13:15.298Z,0
2017-06-23T21:14:26.298Z,0
2017-06-23T21:15:37.359Z,0
2017-06-23T21:16:48.462Z,0
2017-06-23T21:17:59.452Z,0
2017-06-23T21:19:10.440Z,0
2017-06-23T21:20:21.437Z,0
2017-06-23T21:21:32.478Z,0
2017-06-23T21:22:43.462Z,0
2017-06-23T21:23:54.458Z,0
2017-06-23T21:25:05.471Z,0
2017-06-23T21:26:16.456Z,0
2017-06-23T21:27:27.513Z,0
2017-06-23T21:28:38.513Z,0
2017-06-23T21:29:49.516Z,0
2017-06-23T21:31:00.514Z,0
2017-06-23T21:32:14.681Z,0
2017-06-23T21:33:25.724Z,0
2017-06-23T21:34:36.711Z,0
2017-06-23T21:35:47.696Z,0
2017-06-23T21:36:58.897Z,0
2017-06-23T21:38:09.886Z,0
2017-06-23T21:39:20.922Z,0
2017-06-23T21:40:31.916Z,0
2017-06-23T21:41:42.911Z,0
2017-06-23T21:42:53.908Z,0
2017-06-23T21:44:07.334Z,0
2017-06-23T21:45:19.389Z,0
2017-06-23T21:46:30.367Z,0
2017-06-23T21:47:41.349Z,0
2017-06-23T21:48:52.344Z,0
2017-06-23T21:50:03.329Z,0
2017-06-23T21:51:14.381Z,0
2017-06-23T21:52:25.368Z,0
2017-06-23T21:53:36.357Z,0
2017-06-23T21:54:47.360Z,0
2017-06-23T21:55:58.449Z,0
2017-06-23T21:57:09.610Z,0
2017-06-23T21:58:20.595Z,0
2017-06-23T21:59:31.577Z,0
2017-06-23T22:00:42.969Z,0
2017-06-23T22:01:53.958Z,0
2017-06-23T22:03:05.238Z,0
2017-06-23T22:04:16.654Z,0
2017-06-23T22:05:27.638Z,0
2017-06-23T22:06:38.629Z,0
2017-06-23T22:07:51.722Z,0
2017-06-23T22:09:02.763Z,0
2017-06-23T22:10:13.772Z,0
2017-06-23T22:11:24.763Z,0
2017-06-23T22:12:35.751Z,0
2017-06-23T22:13:46.744Z,0
2017-06-23T22:14:57.777Z,0
2017-06-23T22:16:08.756Z,0
2017-06-23T22:17:19.745Z,0
2017-06-23T22:18:30.734Z,0
2017-06-23T22:19:41.916Z,0
2017-06-23T22:20:53.109Z,0
2017-06-23T22:22:04.109Z,0
2017-06-23T22:23:15.103Z,0
2017-06-23T22:24:26.297Z,0
2017-06-23T22:25:37.331Z,0
2017-06-23T22:26:48.325Z,0
2017-06-23T22:27:59.313Z,0
2017-06-23T22:29:10.306Z,0
2017-06-23T22:30:21.498Z,0
2017-06-23T22:31:32.736Z,0
2017-06-23T22:32:43.728Z,0
2017-06-23T22:33:54.725Z,0
2017-06-23T22:35:05.710Z,0
2017-06-23T22:36:16.894Z,0
2017-06-23T22:37:28.137Z,0
2017-06-23T22:38:39.125Z,0
2017-06-23T22:39:50.133Z,0
2017-06-23T22:41:01.126Z,0
2017-06-23T22:42:12.115Z,0
2017-06-23T22:43:23.359Z,0
2017-06-23T22:44:34.352Z,0
2017-06-23T22:45:45.344Z,0
2017-06-23T22:46:56.332Z,0
2017-06-23T22:48:07.329Z,0
2017-06-23T22:49:18.369Z,0
2017-06-23T22:50:29.362Z,0
2017-06-23T22:51:40.549Z,0
2017-06-23T22:52:51.740Z,0
2017-06-23T22:54:02.723Z,0
2017-06-23T22:55:13.762Z,0
2017-06-23T22:56:24.779Z,0
2017-06-23T22:57:35.797Z,0
2017-06-23T22:58:47.008Z,0
2017-06-23T22:59:58.004Z,0
2017-06-23T23:01:09.042Z,0
2017-06-23T23:02:20.031Z,0
2017-06-23T23:03:31.224Z,0
2017-06-23T23:04:42.221Z,0
2017-06-23T23:05:53.414Z,0
2017-06-23T23:07:04.461Z,0
2017-06-23T23:08:15.444Z,0
2017-06-23T23:09:26.632Z,0
2017-06-23T23:10:37.622Z,0
2017-06-23T23:11:48.617Z,0
2017-06-23T23:12:59.659Z,0
2017-06-23T23:14:10.645Z,0
2017-06-23T23:15:21.634Z,0
2017-06-23T23:16:32.627Z,0
2017-06-23T23:17:43.618Z,0
2017-06-23T23:18:54.650Z,0
2017-06-23T23:20:05.840Z,0
2017-06-23T23:21:16.865Z,0
2017-06-23T23:22:28.061Z,0
2017-06-23T23:23:39.043Z,0
2017-06-23T23:24:50.087Z,0
2017-06-23T23:26:01.072Z,0
2017-06-23T23:27:12.063Z,0
2017-06-23T23:28:23.058Z,0
2017-06-23T23:29:34.045Z,0
2017-06-23T23:30:45.241Z,0
2017-06-23T23:31:56.431Z,0
2017-06-23T23:33:07.427Z,0
2017-06-23T23:34:18.618Z,0
2017-06-23T23:35:29.661Z,0
2017-06-23T23:36:40.644Z,0
2017-06-23T23:37:51.628Z,0
2017-06-23T23:39:02.614Z,0
2017-06-23T23:40:13.604Z,0
2017-06-23T23:41:24.844Z,0
2017-06-23T23:42:35.833Z,0
2017-06-23T23:43:46.823Z,0
2017-06-23T23:44:58.022Z,0
2017-06-23T23:46:09.020Z,0
2017-06-23T23:47:20.254Z,0
2017-06-23T23:48:31.243Z,0
2017-06-23T23:49:42.439Z,0
2017-06-23T23:50:53.426Z,0
2017-06-23T23:52:04.616Z,0
2017-06-23T23:53:15.660Z,0
2017-06-23T23:54:26.655Z,0
2017-06-23T23:55:37.655Z,0
2017-06-23T23:56:48.846Z,0
2017-06-23T23:57:59.837Z,0
2017-06-23T23:59:10.881Z,0
